Time;durP1;ratioP1;P1;durP2;ratioP2;P2;SDS_P1;SDS_P2;PMS_P1;PMS_P2;Temp;Humidity;BMP_temperature;BMP_pressure;BME280_temperature;BME280_humidity;BME280_pressure;Samples;Min_cycle;Max_cycle;Signal;HPM_P1;HPM_P2
2021/05/25 00:01:37;;;;;;;5.17;0.80;;;16.60;99.90;;;;;;5048722;28;20432;-82
2021/05/25 00:04:04;;;;;;;4.60;1.02;;;16.40;99.90;;;;;;5048248;28;20550;-83
2021/05/25 00:06:31;;;;;;;3.13;1.10;;;16.30;99.90;;;;;;5050480;28;20371;-82
2021/05/25 00:08:58;;;;;;;4.80;0.93;;;16.30;99.90;;;;;;5049814;28;20406;-83
2021/05/25 00:11:25;;;;;;;3.50;0.85;;;16.40;99.90;;;;;;5049908;28;20386;-82
2021/05/25 00:13:53;;;;;;;4.32;1.00;;;16.50;99.90;;;;;;5049702;28;20521;-84
2021/05/25 00:16:20;;;;;;;4.78;0.82;;;16.70;99.90;;;;;;5049576;28;20383;-82
2021/05/25 00:18:47;;;;;;;4.07;0.82;;;16.70;99.90;;;;;;5049463;28;20968;-84
2021/05/25 00:21:14;;;;;;;3.85;0.90;;;16.80;99.90;;;;;;5048239;28;20855;-82
2021/05/25 00:23:41;;;;;;;4.55;0.80;;;17.00;99.90;;;;;;5045789;28;20408;-83
2021/05/25 00:26:08;;;;;;;1.80;0.80;;;17.10;99.90;;;;;;5049704;28;20426;-83
2021/05/25 00:28:35;;;;;;;4.68;0.80;;;17.10;99.90;;;;;;5030867;28;20744;-82
2021/05/25 00:31:02;;;;;;;5.50;0.80;;;17.10;99.90;;;;;;5045151;28;20406;-82
2021/05/25 00:33:29;;;;;;;1.93;0.70;;;17.00;99.90;;;;;;5027764;28;20489;-82
2021/05/25 00:35:56;;;;;;;4.10;0.93;;;17.00;99.90;;;;;;5040781;28;20409;-83
2021/05/25 00:38:23;;;;;;;3.25;0.60;;;17.00;99.90;;;;;;5029706;28;20386;-83
2021/05/25 00:40:50;;;;;;;3.15;0.73;;;16.90;99.90;;;;;;5046412;28;20419;-82
2021/05/25 00:43:17;;;;;;;2.80;1.00;;;16.90;99.90;;;;;;5030854;28;20403;-82
2021/05/25 00:45:44;;;;;;;4.30;0.90;;;16.90;99.90;;;;;;5048738;28;20386;-84
2021/05/25 00:48:11;;;;;;;3.38;0.80;;;17.00;99.90;;;;;;5048873;28;20387;-81
2021/05/25 00:50:38;;;;;;;1.63;0.60;;;17.10;99.90;;;;;;5030420;28;20445;-82
2021/05/25 00:53:05;;;;;;;4.82;0.70;;;17.20;99.90;;;;;;5046834;28;20396;-82
2021/05/25 00:55:35;;;;;;;2.83;0.70;;;17.30;99.90;;;;;;5035264;28;20399;-82
2021/05/25 00:58:05;;;;;;;2.50;0.50;;;17.40;99.90;;;;;;5044195;28;20392;-82
2021/05/25 01:00:38;;;;;;;3.35;0.68;;;17.50;99.90;;;;;;5047892;28;20391;-83
2021/05/25 01:03:07;;;;;;;2.05;0.40;;;17.50;99.90;;;;;;5037184;28;20399;-84
2021/05/25 01:05:45;;;;;;;3.90;0.60;;;17.50;99.90;;;;;;5048887;28;20407;-85
2021/05/25 01:08:13;;;;;;;3.70;0.70;;;17.60;99.90;;;;;;5043357;28;20450;-83
2021/05/25 01:11:03;;;;;;;3.45;0.50;;;17.60;99.90;;;;;;5045486;28;20418;-82
2021/05/25 01:13:34;;;;;;;2.53;0.55;;;17.50;99.90;;;;;;5045209;28;20396;-83
2021/05/25 01:16:01;;;;;;;2.50;0.57;;;17.50;99.90;;;;;;5046798;28;20396;-83
2021/05/25 01:18:28;;;;;;;3.45;0.70;;;17.50;99.90;;;;;;5046097;28;20394;-84
2021/05/25 01:20:55;;;;;;;2.53;0.45;;;17.50;99.90;;;;;;5024228;28;20395;-83
2021/05/25 01:23:22;;;;;;;4.35;0.60;;;17.60;99.90;;;;;;5046266;28;20416;-83
2021/05/25 01:25:49;;;;;;;3.88;0.63;;;17.70;99.90;;;;;;5045587;28;20532;-83
2021/05/25 01:28:23;;;;;;;5.10;0.60;;;17.80;99.90;;;;;;5038076;28;20910;-83
2021/05/25 01:30:53;;;;;;;1.73;0.40;;;17.80;99.90;;;;;;5047992;28;20415;-82
2021/05/25 01:33:24;;;;;;;5.18;0.80;;;17.80;99.90;;;;;;5047823;28;20386;-83
2021/05/25 01:35:51;;;;;;;4.00;0.70;;;17.90;99.90;;;;;;5027698;28;20782;-81
2021/05/25 01:38:19;;;;;;;2.03;0.40;;;17.90;99.90;;;;;;5044821;28;20412;-83
2021/05/25 01:40:46;;;;;;;3.28;0.50;;;17.90;99.90;;;;;;5025402;28;20394;-83
2021/05/25 01:43:14;;;;;;;3.13;0.70;;;17.90;99.90;;;;;;5035791;28;20786;-83
2021/05/25 01:45:42;;;;;;;4.50;0.67;;;17.90;99.90;;;;;;5054837;28;20376;-83
2021/05/25 01:48:11;;;;;;;2.97;0.50;;;17.90;99.90;;;;;;5024776;28;20400;-83
2021/05/25 01:50:40;;;;;;;2.70;0.40;;;17.90;99.90;;;;;;5043775;28;20419;-82
2021/05/25 01:53:17;;;;;;;1.70;0.40;;;17.80;99.90;;;;;;5038941;28;20901;-83
2021/05/25 01:55:51;;;;;;;3.47;0.60;;;17.80;99.90;;;;;;5040647;28;20510;-82
2021/05/25 01:58:20;;;;;;;3.60;0.47;;;18.00;99.90;;;;;;5041458;28;20395;-82
2021/05/25 02:00:52;;;;;;;3.55;0.75;;;18.00;99.90;;;;;;5043572;28;20402;-82
2021/05/25 02:03:19;;;;;;;3.97;0.50;;;18.00;99.90;;;;;;5030339;28;20979;-83
2021/05/25 02:05:47;;;;;;;1.40;0.45;;;18.00;99.90;;;;;;5037443;28;20456;-83
2021/05/25 02:08:15;;;;;;;2.07;0.67;;;18.10;99.90;;;;;;5035475;28;20510;-81
2021/05/25 02:10:48;;;;;;;2.53;0.70;;;18.00;99.90;;;;;;5040465;28;20593;-82
2021/05/25 02:13:29;;;;;;;2.20;0.50;;;18.10;99.90;;;;;;5041343;28;20397;-81
2021/05/25 02:16:18;;;;;;;2.83;0.47;;;18.20;99.90;;;;;;5046307;28;20453;-83
2021/05/25 02:18:47;;;;;;;1.88;0.40;;;18.30;99.90;;;;;;5049795;28;20380;-82
2021/05/25 02:21:19;;;;;;;1.90;0.40;;;18.50;99.90;;;;;;5062876;28;20800;-84
2021/05/25 02:23:48;;;;;;;3.72;0.60;;;18.50;99.90;;;;;;5051809;28;20402;-83
2021/05/25 02:26:16;;;;;;;2.20;0.35;;;18.60;99.90;;;;;;5049355;28;20863;-83
2021/05/25 02:28:43;;;;;;;1.55;0.32;;;18.50;99.90;;;;;;5044577;28;20372;-84
2021/05/25 02:31:11;;;;;;;2.50;0.50;;;18.40;99.90;;;;;;5046108;28;20387;-82
2021/05/25 02:33:38;;;;;;;1.55;0.40;;;18.30;99.90;;;;;;5045632;28;20384;-83
2021/05/25 02:36:06;;;;;;;1.73;0.50;;;18.30;99.90;;;;;;5049455;28;20463;-83
2021/05/25 02:38:33;;;;;;;2.90;0.60;;;18.30;99.90;;;;;;5043283;28;20517;-84
2021/05/25 02:41:01;;;;;;;2.33;0.40;;;18.30;99.90;;;;;;5045579;28;20398;-83
2021/05/25 02:43:30;;;;;;;2.22;0.50;;;18.30;99.90;;;;;;5048675;28;20406;-82
2021/05/25 02:45:58;;;;;;;2.75;0.70;;;18.40;99.90;;;;;;5048942;28;20383;-82
2021/05/25 02:48:25;;;;;;;1.60;0.52;;;18.50;99.90;;;;;;5030602;28;20826;-82
2021/05/25 02:50:53;;;;;;;2.10;0.50;;;18.50;99.90;;;;;;5049555;28;20392;-83
2021/05/25 02:53:20;;;;;;;2.20;0.40;;;18.40;99.90;;;;;;5033921;28;20415;-83
2021/05/25 02:55:47;;;;;;;2.95;0.40;;;18.30;99.90;;;;;;5052296;28;20413;-83
2021/05/25 02:58:15;;;;;;;2.70;0.40;;;18.50;99.90;;;;;;5050997;28;20754;-82
2021/05/25 03:00:45;;;;;;;1.70;0.50;;;18.50;99.90;;;;;;5051129;28;20424;-83
2021/05/25 03:03:13;;;;;;;1.60;0.22;;;18.60;99.90;;;;;;5051601;28;20419;-83
2021/05/25 03:05:41;;;;;;;1.73;0.40;;;18.60;99.90;;;;;;5045400;28;20418;-82
2021/05/25 03:08:11;;;;;;;2.00;0.43;;;18.60;99.90;;;;;;5052094;28;20414;-83
2021/05/25 03:10:41;;;;;;;1.85;0.45;;;18.70;99.90;;;;;;5047355;28;20419;-83
2021/05/25 03:13:09;;;;;;;1.10;0.28;;;18.70;99.90;;;;;;5048590;28;20391;-84
2021/05/25 03:15:44;;;;;;;0.90;0.40;;;18.60;99.90;;;;;;5052823;28;20870;-84
2021/05/25 03:18:12;;;;;;;1.80;0.40;;;18.70;99.90;;;;;;5049198;28;20392;-83
2021/05/25 03:20:43;;;;;;;2.05;0.35;;;18.70;99.90;;;;;;5050284;28;20403;-84
2021/05/25 03:23:11;;;;;;;2.35;0.30;;;18.80;99.90;;;;;;5028862;28;20551;-82
2021/05/25 03:25:38;;;;;;;1.25;0.30;;;18.80;99.90;;;;;;5050986;28;20423;-81
2021/05/25 03:28:07;;;;;;;0.88;0.40;;;18.80;99.90;;;;;;5047961;28;20388;-82
2021/05/25 03:30:37;;;;;;;3.13;0.50;;;18.80;99.90;;;;;;5032605;28;20747;-80
2021/05/25 03:33:04;;;;;;;0.60;0.30;;;18.70;99.90;;;;;;5048434;28;20449;-82
2021/05/25 03:35:31;;;;;;;1.90;0.30;;;18.70;99.90;;;;;;5050202;28;20435;-82
2021/05/25 03:37:58;;;;;;;2.03;0.40;;;18.70;99.90;;;;;;5053330;28;20376;-83
2021/05/25 03:40:26;;;;;;;1.98;0.40;;;18.70;99.90;;;;;;5049647;28;20878;-83
2021/05/25 03:42:54;;;;;;;1.35;0.30;;;18.70;99.90;;;;;;5029281;28;20427;-83
2021/05/25 03:45:23;;;;;;;2.90;0.43;;;18.70;99.90;;;;;;5050644;28;20400;-82
2021/05/25 03:47:50;;;;;;;1.77;0.40;;;18.70;99.90;;;;;;5050358;28;20471;-83
2021/05/25 03:50:18;;;;;;;2.63;0.47;;;18.80;99.90;;;;;;5049107;28;20442;-83
2021/05/25 03:52:49;;;;;;;1.05;0.35;;;18.80;99.90;;;;;;5049776;28;20384;-83
2021/05/25 04:00:42;;;;;;;1.27;0.30;;;18.90;99.90;;;;;;5050161;28;20374;-84
2021/05/25 04:03:09;;;;;;;1.52;0.38;;;19.00;99.90;;;;;;5048310;28;20891;-83
2021/05/25 04:05:37;;;;;;;1.40;0.40;;;19.00;99.90;;;;;;5046122;28;20392;-83
2021/05/25 04:08:04;;;;;;;1.42;0.30;;;18.90;99.90;;;;;;5062035;28;20400;-83
2021/05/25 04:10:32;;;;;;;1.20;0.30;;;18.90;99.90;;;;;;5049627;28;20508;-84
2021/05/25 04:12:59;;;;;;;1.00;0.20;;;18.90;99.90;;;;;;5049930;28;20475;-85
2021/05/25 04:15:26;;;;;;;1.43;0.40;;;18.90;99.90;;;;;;5047069;28;20394;-83
2021/05/25 04:17:54;;;;;;;2.05;0.30;;;18.80;99.90;;;;;;5027564;28;20478;-84
2021/05/25 04:20:23;;;;;;;2.00;0.30;;;18.80;99.90;;;;;;5032400;28;20428;-84
2021/05/25 04:22:50;;;;;;;1.48;0.30;;;18.80;99.90;;;;;;5035850;28;20411;-84
2021/05/25 04:25:17;;;;;;;1.83;0.30;;;18.80;99.90;;;;;;5048367;28;20409;-84
2021/05/25 04:27:45;;;;;;;0.98;0.30;;;18.80;99.90;;;;;;5048796;28;20376;-84
2021/05/25 04:30:12;;;;;;;1.35;0.30;;;18.70;99.90;;;;;;5046990;28;20748;-84
2021/05/25 04:32:39;;;;;;;1.48;0.30;;;18.70;99.90;;;;;;5048139;28;20441;-83
2021/05/25 04:35:07;;;;;;;1.70;0.30;;;18.70;99.90;;;;;;5046583;28;20396;-84
2021/05/25 04:37:35;;;;;;;1.63;0.47;;;18.70;99.90;;;;;;5023967;28;20388;-83
2021/05/25 04:40:02;;;;;;;1.25;0.30;;;18.70;99.90;;;;;;5044141;28;20388;-84
2021/05/25 04:42:29;;;;;;;3.05;0.60;;;18.70;99.90;;;;;;5041602;28;20429;-82
2021/05/25 04:44:56;;;;;;;2.50;0.65;;;18.70;99.90;;;;;;5027918;28;20416;-84
2021/05/25 04:47:23;;;;;;;3.30;0.50;;;18.70;99.90;;;;;;5043136;28;20416;-83
2021/05/25 04:49:50;;;;;;;1.13;0.45;;;18.70;99.90;;;;;;5050510;28;20404;-83
2021/05/25 04:52:17;;;;;;;1.42;0.30;;;18.70;99.90;;;;;;5044478;28;20486;-83
2021/05/25 04:54:44;;;;;;;1.30;0.40;;;18.60;99.90;;;;;;5027942;28;20806;-85
2021/05/25 04:57:11;;;;;;;1.83;0.47;;;18.60;99.90;;;;;;5046343;28;20387;-84
2021/05/25 04:59:38;;;;;;;0.90;0.33;;;18.70;99.90;;;;;;5046509;28;20480;-83
2021/05/25 05:02:05;;;;;;;1.45;0.40;;;18.60;99.90;;;;;;5048172;28;20388;-83
2021/05/25 05:04:37;;;;;;;1.45;0.40;;;18.60;99.90;;;;;;5047130;28;20403;-84
2021/05/25 05:07:04;;;;;;;1.38;0.40;;;18.60;99.90;;;;;;5041675;28;20396;-84
2021/05/25 05:09:31;;;;;;;3.27;0.60;;;18.50;99.90;;;;;;5043894;28;20526;-83
2021/05/25 05:11:58;;;;;;;1.50;0.25;;;18.60;99.90;;;;;;5039767;28;20453;-83
2021/05/25 05:14:25;;;;;;;3.20;0.40;;;18.50;99.90;;;;;;5021003;28;20405;-82
2021/05/25 05:16:52;;;;;;;1.00;0.38;;;18.40;99.90;;;;;;5050957;28;20398;-82
2021/05/25 05:19:19;;;;;;;0.65;0.30;;;18.40;99.90;;;;;;5046864;28;20388;-82
2021/05/25 05:21:46;;;;;;;1.50;0.45;;;18.40;99.90;;;;;;5027891;28;20898;-83
2021/05/25 05:24:13;;;;;;;2.38;0.50;;;18.40;99.90;;;;;;5045603;28;20412;-83
2021/05/25 05:26:40;;;;;;;1.88;0.40;;;18.30;99.90;;;;;;5026987;28;20956;-82
2021/05/25 05:29:07;;;;;;;1.55;0.40;;;18.30;99.90;;;;;;5047407;28;20407;-84
2021/05/25 05:31:34;;;;;;;1.40;0.40;;;18.20;99.90;;;;;;5028609;28;20392;-83
2021/05/25 05:34:01;;;;;;;2.13;0.40;;;18.20;99.90;;;;;;5029793;28;20483;-83
2021/05/25 05:36:28;;;;;;;2.85;0.40;;;18.20;99.90;;;;;;5041711;28;20441;-82
2021/05/25 05:38:55;;;;;;;1.33;0.30;;;18.10;99.90;;;;;;5030326;28;20380;-83
2021/05/25 05:41:22;;;;;;;1.77;0.50;;;18.10;99.90;;;;;;5047660;28;20376;-84
2021/05/25 05:43:49;;;;;;;1.20;0.40;;;18.10;99.90;;;;;;5046364;28;20422;-84
2021/05/25 05:46:17;;;;;;;1.90;0.73;;;18.10;99.90;;;;;;5044961;28;20384;-83
2021/05/25 05:48:44;;;;;;;2.35;0.50;;;18.00;99.90;;;;;;5037934;28;20581;-85
2021/05/25 05:51:11;;;;;;;2.13;0.30;;;18.00;99.90;;;;;;5043225;28;21166;-84
2021/05/25 05:53:38;;;;;;;2.10;0.40;;;18.00;99.90;;;;;;5047120;28;20406;-82
2021/05/25 05:56:05;;;;;;;4.10;0.60;;;17.90;99.90;;;;;;5046739;28;20388;-83
2021/05/25 05:58:32;;;;;;;3.60;1.08;;;17.80;99.90;;;;;;5037826;28;20904;-85
2021/05/25 06:00:59;;;;;;;5.03;1.40;;;17.70;99.90;;;;;;5032362;28;20401;-83
2021/05/25 06:03:26;;;;;;;5.35;1.00;;;17.70;99.90;;;;;;5033194;28;20463;-83
2021/05/25 06:05:53;;;;;;;7.97;1.40;;;17.60;99.90;;;;;;5042979;28;20395;-84
2021/05/25 06:08:22;;;;;;;5.53;1.10;;;17.60;99.90;;;;;;5047862;28;20388;-84
2021/05/25 06:10:52;;;;;;;7.00;1.60;;;17.50;99.90;;;;;;5047480;28;20441;-83
2021/05/25 06:13:25;;;;;;;6.75;1.10;;;17.40;99.90;;;;;;5035731;28;20382;-83
2021/05/25 06:15:58;;;;;;;5.50;1.50;;;17.30;99.90;;;;;;5039306;28;20395;-82
2021/05/25 06:18:25;;;;;;;6.00;1.58;;;17.30;99.90;;;;;;5043144;28;20390;-83
2021/05/25 06:20:52;;;;;;;7.95;2.00;;;17.20;99.90;;;;;;5045619;28;20407;-83
2021/05/25 06:23:19;;;;;;;9.00;1.98;;;17.20;99.90;;;;;;5048749;28;20400;-85
2021/05/25 06:25:47;;;;;;;6.53;1.40;;;17.20;99.90;;;;;;5048666;28;20427;-83
2021/05/25 06:28:15;;;;;;;6.82;1.52;;;17.20;99.90;;;;;;5029169;28;20442;-82
2021/05/25 06:30:42;;;;;;;5.38;1.52;;;17.10;99.90;;;;;;5043878;28;20847;-82
2021/05/25 06:33:09;;;;;;;7.53;1.75;;;17.10;99.90;;;;;;5047653;28;20387;-82
2021/05/25 06:35:37;;;;;;;5.60;1.63;;;17.00;99.90;;;;;;5032861;28;20970;-83
2021/05/25 06:38:04;;;;;;;7.72;1.67;;;16.80;99.90;;;;;;5033297;28;20403;-84
2021/05/25 06:40:31;;;;;;;6.73;1.37;;;16.70;99.90;;;;;;5052114;28;20739;-84
2021/05/25 06:42:58;;;;;;;4.95;1.10;;;16.70;99.90;;;;;;5051146;28;20455;-83
2021/05/25 06:45:25;;;;;;;4.35;1.17;;;16.70;99.90;;;;;;5033902;28;20487;-84
2021/05/25 06:47:52;;;;;;;4.80;1.10;;;16.60;99.90;;;;;;5052053;28;20449;-83
2021/05/25 06:50:19;;;;;;;5.65;1.05;;;16.60;99.90;;;;;;5051886;28;20711;-83
2021/05/25 06:52:46;;;;;;;6.43;1.40;;;16.50;99.90;;;;;;5051656;28;20384;-83
2021/05/25 06:55:15;;;;;;;7.30;1.75;;;16.40;99.90;;;;;;5051717;28;20501;-83
2021/05/25 06:57:42;;;;;;;7.20;1.55;;;16.30;99.90;;;;;;5051382;28;20368;-82
2021/05/25 07:00:11;;;;;;;6.47;1.60;;;16.30;99.90;;;;;;5051496;28;20368;-83
2021/05/25 07:02:38;;;;;;;5.95;1.58;;;16.20;99.90;;;;;;5051126;28;20383;-83
2021/05/25 07:05:08;;;;;;;3.53;1.30;;;16.10;99.90;;;;;;5050822;28;20400;-82
2021/05/25 07:07:35;;;;;;;5.40;1.70;;;16.10;99.90;;;;;;5051517;28;20436;-83
2021/05/25 07:10:04;;;;;;;5.05;1.40;;;16.00;99.90;;;;;;5051398;28;20385;-83
2021/05/25 07:12:31;;;;;;;8.18;1.40;;;16.00;99.90;;;;;;5051656;28;20395;-83
2021/05/25 07:14:58;;;;;;;6.25;1.42;;;16.00;99.90;;;;;;5052220;28;20376;-83
2021/05/25 07:17:25;;;;;;;4.85;1.40;;;16.10;99.90;;;;;;5047625;28;20395;-84
2021/05/25 07:19:52;;;;;;;4.85;1.50;;;16.00;99.90;;;;;;5052224;28;20392;-84
2021/05/25 07:22:21;;;;;;;4.50;1.70;;;16.00;99.90;;;;;;5051472;28;20451;-84
2021/05/25 07:24:49;;;;;;;7.30;1.30;;;16.00;99.90;;;;;;5048190;28;20469;-84
2021/05/25 07:27:17;;;;;;;6.25;1.27;;;15.90;99.90;;;;;;5048708;28;20384;-83
2021/05/25 07:29:44;;;;;;;4.03;1.27;;;15.90;99.90;;;;;;5054073;28;20714;-85
2021/05/25 07:32:11;;;;;;;5.53;1.25;;;15.90;99.90;;;;;;5052013;28;20392;-86
2021/05/25 07:34:38;;;;;;;4.78;1.60;;;15.80;99.90;;;;;;5036918;28;20395;-84
2021/05/25 07:37:05;;;;;;;5.18;1.27;;;15.80;99.90;;;;;;5055347;28;20457;-85
2021/05/25 07:39:33;;;;;;;2.40;1.00;;;15.80;99.90;;;;;;5053250;28;20883;-85
2021/05/25 07:42:00;;;;;;;5.43;1.73;;;15.80;99.90;;;;;;5057487;28;20450;-85
2021/05/25 07:44:27;;;;;;;4.45;1.25;;;15.70;99.90;;;;;;5029750;28;20420;-84
2021/05/25 07:46:54;;;;;;;4.17;1.10;;;15.60;99.90;;;;;;5021366;28;20855;-84
2021/05/25 07:49:21;;;;;;;3.53;1.05;;;15.60;99.90;;;;;;5035029;28;20827;-84
2021/05/25 07:51:48;;;;;;;4.20;1.35;;;15.60;99.90;;;;;;5050752;28;20392;-84
2021/05/25 07:54:15;;;;;;;4.25;1.20;;;15.60;99.90;;;;;;5049415;28;20407;-84
2021/05/25 07:56:42;;;;;;;3.30;1.30;;;15.50;99.90;;;;;;5050314;28;20384;-84
2021/05/25 07:59:09;;;;;;;3.60;1.35;;;15.40;99.90;;;;;;5050006;28;20403;-84
2021/05/25 08:01:36;;;;;;;4.35;1.20;;;15.40;99.90;;;;;;5048030;28;20870;-85
2021/05/25 08:04:03;;;;;;;4.10;1.20;;;15.40;99.90;;;;;;5029021;28;20404;-84
2021/05/25 08:06:30;;;;;;;2.33;1.10;;;15.40;99.90;;;;;;5027491;28;20388;-82
2021/05/25 08:08:57;;;;;;;3.63;1.45;;;15.30;99.90;;;;;;5047445;28;20408;-83
2021/05/25 08:11:24;;;;;;;2.28;0.93;;;15.30;99.90;;;;;;5047889;28;20395;-82
2021/05/25 08:13:51;;;;;;;2.55;1.10;;;15.30;99.90;;;;;;5044308;28;20378;-82
2021/05/25 08:16:21;;;;;;;2.38;1.23;;;15.20;99.90;;;;;;5048016;28;20403;-83
2021/05/25 08:18:54;;;;;;;2.92;1.25;;;15.20;99.90;;;;;;5043923;28;20788;-82
2021/05/25 08:21:21;;;;;;;4.80;1.47;;;15.20;99.90;;;;;;5037410;28;20568;-81
2021/05/25 08:23:48;;;;;;;4.93;1.70;;;15.10;99.90;;;;;;5054478;28;20504;-81
2021/05/25 08:26:15;;;;;;;4.30;1.20;;;15.10;99.90;;;;;;5046264;28;20392;-83
2021/05/25 08:28:42;;;;;;;4.50;1.40;;;15.10;99.90;;;;;;5048442;28;20407;-84
2021/05/25 08:31:09;;;;;;;3.35;1.25;;;15.10;99.90;;;;;;5047038;28;21815;-89
2021/05/25 08:33:36;;;;;;;1.65;1.10;;;15.10;99.90;;;;;;5030411;28;20916;-84
2021/05/25 08:36:04;;;;;;;3.33;1.20;;;15.10;99.90;;;;;;5046820;28;20430;-82
2021/05/25 08:38:31;;;;;;;2.25;1.17;;;15.10;99.90;;;;;;5029307;28;20383;-84
2021/05/25 08:40:58;;;;;;;2.80;1.30;;;15.00;99.90;;;;;;5046534;28;20992;-84
2021/05/25 08:43:25;;;;;;;2.25;1.65;;;15.00;99.90;;;;;;5047892;28;20446;-83
2021/05/25 08:46:12;;;;;;;3.03;1.48;;;15.00;99.90;;;;;;5042666;28;20389;-83
2021/05/25 08:48:43;;;;;;;3.85;1.27;;;14.90;99.90;;;;;;5049106;28;20448;-81
2021/05/25 08:51:11;;;;;;;2.92;1.45;;;14.80;99.90;;;;;;5049228;28;20384;-82
2021/05/25 08:53:38;;;;;;;1.60;1.40;;;14.80;99.90;;;;;;5049479;28;20406;-83
2021/05/25 08:56:06;;;;;;;2.70;1.40;;;14.70;99.90;;;;;;5048042;28;20376;-83
2021/05/25 08:58:33;;;;;;;2.63;1.13;;;14.60;99.90;;;;;;5045382;28;20395;-84
2021/05/25 09:01:00;;;;;;;2.60;1.40;;;14.60;99.90;;;;;;5047373;28;20387;-84
2021/05/25 09:03:30;;;;;;;2.22;1.80;;;14.50;99.90;;;;;;5048697;28;20395;-84
2021/05/25 09:06:17;;;;;;;3.70;1.33;;;14.50;99.90;;;;;;5047949;28;20399;-84
2021/05/25 09:09:04;;;;;;;5.57;2.92;;;14.40;99.90;;;;;;5048024;28;20457;-84
2021/05/25 09:11:31;;;;;;;2.67;2.00;;;14.50;99.90;;;;;;5049073;28;20902;-84
2021/05/25 09:14:08;;;;;;;3.90;2.45;;;14.50;99.90;;;;;;5031114;28;20819;-84
2021/05/25 09:16:35;;;;;;;4.15;2.92;;;14.50;99.90;;;;;;5051884;28;20399;-87
2021/05/25 09:19:02;;;;;;;3.17;2.05;;;14.40;99.90;;;;;;5036620;28;20919;-86
2021/05/25 09:21:34;;;;;;;5.57;1.98;;;14.30;99.90;;;;;;5047311;28;20445;-85
2021/05/25 09:24:01;;;;;;;3.22;1.88;;;14.30;99.90;;;;;;5045649;28;20413;-84
2021/05/25 09:26:39;;;;;;;4.43;1.90;;;14.20;99.90;;;;;;5047757;28;20391;-86
2021/05/25 09:29:08;;;;;;;4.03;2.03;;;14.20;99.90;;;;;;5013950;28;20399;-86
2021/05/25 09:31:47;;;;;;;2.10;1.65;;;14.20;99.90;;;;;;5046786;28;20437;-85
2021/05/25 09:34:15;;;;;;;3.58;1.90;;;14.30;99.90;;;;;;5043613;28;20391;-86
2021/05/25 09:37:05;;;;;;;2.35;1.60;;;14.30;99.90;;;;;;5046349;28;20380;-86
2021/05/25 09:39:56;;;;;;;2.83;2.15;;;14.30;99.90;;;;;;5047412;28;20375;-86
2021/05/25 09:42:30;;;;;;;2.88;2.20;;;14.30;99.90;;;;;;5041050;28;20395;-85
2021/05/25 09:45:03;;;;;;;6.45;2.38;;;14.30;99.90;;;;;;5028920;28;20839;-86
2021/05/25 09:47:52;;;;;;;3.47;1.80;;;14.20;99.90;;;;;;5036679;28;20494;-84
2021/05/25 09:50:22;;;;;;;3.03;1.85;;;14.20;99.90;;;;;;5047526;28;20383;-87
2021/05/25 09:53:06;;;;;;;3.67;2.70;;;14.30;99.90;;;;;;5044784;28;20400;-87
2021/05/25 09:55:56;;;;;;;6.30;4.18;;;14.30;99.90;;;;;;5040762;28;20435;-86
2021/05/25 09:58:43;;;;;;;7.13;2.97;;;14.40;99.90;;;;;;5048914;28;20397;-87
2021/05/25 10:01:10;;;;;;;3.60;2.67;;;14.30;99.90;;;;;;5032878;28;20396;-88
2021/05/25 10:04:10;;;;;;;4.38;2.50;;;14.30;99.90;;;;;;5049210;28;20411;-85
2021/05/25 10:06:47;;;;;;;2.83;2.15;;;14.40;99.90;;;;;;5041405;28;20469;-85
2021/05/25 10:09:14;;;;;;;3.10;1.90;;;14.40;99.90;;;;;;5037070;28;20403;-84
2021/05/25 10:11:48;;;;;;;2.55;1.27;;;14.40;99.90;;;;;;5019938;28;20384;-86
2021/05/25 10:14:17;;;;;;;3.05;1.52;;;14.50;99.90;;;;;;5025293;28;21400;-86
2021/05/25 10:16:46;;;;;;;1.83;1.17;;;14.50;99.90;;;;;;5044463;28;20778;-86
2021/05/25 10:19:26;;;;;;;3.20;1.10;;;14.50;99.90;;;;;;5049215;28;20395;-86
2021/05/25 10:21:54;;;;;;;2.30;1.70;;;14.40;99.90;;;;;;5046595;28;20433;-86
2021/05/25 10:24:24;;;;;;;2.67;0.95;;;14.50;99.90;;;;;;5050138;28;20411;-85
2021/05/25 10:26:52;;;;;;;2.30;1.30;;;14.50;99.90;;;;;;5050588;28;20437;-85
2021/05/25 10:29:19;;;;;;;1.47;0.90;;;14.50;99.90;;;;;;5031336;28;20451;-84
2021/05/25 10:31:56;;;;;;;1.63;1.00;;;14.50;99.90;;;;;;5049620;28;20396;-85
2021/05/25 10:34:30;;;;;;;1.77;0.90;;;14.60;99.90;;;;;;5030404;28;20612;-86
2021/05/25 10:36:59;;;;;;;5.22;1.40;;;14.60;99.90;;;;;;5046516;28;20405;-86
2021/05/25 10:39:30;;;;;;;2.17;1.30;;;14.50;99.90;;;;;;5045186;28;21048;-86
2021/05/25 10:42:22;;;;;;;1.98;0.85;;;14.50;99.90;;;;;;5044524;28;20394;-87
2021/05/25 10:45:04;;;;;;;1.77;1.10;;;14.50;99.90;;;;;;5030661;28;21015;-85
2021/05/25 10:47:37;;;;;;;1.50;0.90;;;14.50;99.90;;;;;;5031374;28;20933;-86
2021/05/25 10:50:17;;;;;;;2.00;0.80;;;14.50;99.90;;;;;;5056052;28;20391;-88
2021/05/25 10:53:10;;;;;;;4.15;1.15;;;14.40;99.90;;;;;;5044251;28;20483;-87
2021/05/25 10:55:39;;;;;;;3.00;1.15;;;14.30;99.90;;;;;;5037916;28;20394;-87
2021/05/25 10:58:19;;;;;;;1.33;1.00;;;14.30;99.90;;;;;;5050387;28;20938;-87
2021/05/25 11:00:48;;;;;;;2.67;1.17;;;14.20;99.90;;;;;;5046772;28;20883;-88
2021/05/25 11:03:21;;;;;;;2.63;1.23;;;14.20;99.90;;;;;;5049668;28;20894;-86
2021/05/25 11:05:55;;;;;;;2.50;1.00;;;14.20;99.90;;;;;;5031886;28;20435;-86
2021/05/25 11:08:25;;;;;;;1.80;1.10;;;14.20;99.90;;;;;;5028093;28;20457;-87
2021/05/25 11:11:14;;;;;;;2.55;1.10;;;14.20;99.90;;;;;;5032522;28;20751;-87
2021/05/25 11:13:45;;;;;;;3.45;1.17;;;14.10;99.90;;;;;;5046739;28;20376;-88
2021/05/25 11:16:17;;;;;;;3.97;1.20;;;14.10;99.90;;;;;;5051615;28;20392;-87
2021/05/25 11:24:34;;;;;;;3.90;1.25;;;14.00;99.90;;;;;;5050276;28;20412;-86
2021/05/25 11:27:06;;;;;;;1.88;1.27;;;13.90;99.90;;;;;;5045399;28;20387;-87
2021/05/25 11:29:39;;;;;;;1.90;1.80;;;13.90;99.90;;;;;;5045059;28;20396;-85
2021/05/25 11:32:07;;;;;;;3.22;1.00;;;13.90;99.90;;;;;;5045526;28;20755;-89
2021/05/25 11:34:34;;;;;;;5.50;1.30;;;13.90;99.90;;;;;;5030590;28;20813;-86
2021/05/25 11:37:06;;;;;;;2.30;1.08;;;13.90;99.90;;;;;;5049894;28;20401;-87
2021/05/25 11:39:35;;;;;;;1.23;0.97;;;13.90;99.90;;;;;;5048274;28;20399;-87
2021/05/25 11:42:08;;;;;;;3.28;1.20;;;13.90;99.90;;;;;;5048153;28;20423;-86
2021/05/25 11:44:43;;;;;;;3.28;1.30;;;13.90;99.90;;;;;;5044444;28;20906;-86
2021/05/25 11:47:11;;;;;;;1.80;1.00;;;14.00;99.90;;;;;;5046951;28;20394;-85
2021/05/25 11:49:45;;;;;;;1.48;0.90;;;14.00;99.90;;;;;;5044945;28;20475;-84
2021/05/25 11:52:33;;;;;;;1.15;0.95;;;14.10;99.90;;;;;;5029943;28;20866;-84
2021/05/25 11:55:03;;;;;;;3.65;0.90;;;14.10;99.90;;;;;;5048004;28;20453;-85
2021/05/25 11:57:53;;;;;;;1.90;0.70;;;14.20;99.90;;;;;;5047030;28;20403;-85
2021/05/25 12:00:32;;;;;;;1.67;1.20;;;14.20;99.90;;;;;;5036698;28;21048;-87
2021/05/25 12:03:01;;;;;;;2.03;0.98;;;14.20;99.90;;;;;;5029538;28;20414;-85
2021/05/25 12:05:32;;;;;;;1.17;0.80;;;14.20;99.90;;;;;;5047305;28;20446;-88
2021/05/25 12:08:02;;;;;;;3.70;0.80;;;14.20;99.90;;;;;;5043747;28;20788;-84
2021/05/25 12:10:32;;;;;;;2.55;0.95;;;14.20;99.90;;;;;;5043456;28;20525;-84
2021/05/25 12:13:16;;;;;;;1.83;1.02;;;14.20;99.90;;;;;;5043599;28;20395;-84
2021/05/25 12:15:49;;;;;;;1.70;0.88;;;14.20;99.90;;;;;;5048700;28;20422;-84
2021/05/25 12:18:19;;;;;;;4.10;0.88;;;14.20;99.90;;;;;;5048718;28;20402;-84
2021/05/25 12:20:54;;;;;;;1.52;0.88;;;14.20;99.90;;;;;;5038942;28;20782;-84
2021/05/25 12:23:24;;;;;;;3.40;0.73;;;14.20;99.90;;;;;;5044810;28;20424;-83
2021/05/25 12:25:57;;;;;;;2.15;0.70;;;14.20;99.90;;;;;;5043284;28;20545;-87
2021/05/25 12:28:30;;;;;;;2.58;0.85;;;14.20;99.90;;;;;;5028205;28;20389;-85
2021/05/25 12:30:59;;;;;;;3.92;1.00;;;14.20;99.90;;;;;;5027798;28;20611;-85
2021/05/25 12:33:37;;;;;;;2.90;0.98;;;14.20;99.90;;;;;;5040123;28;20560;-86
2021/05/25 12:36:14;;;;;;;1.63;0.60;;;14.20;99.90;;;;;;5028922;28;20387;-85
2021/05/25 12:39:05;;;;;;;2.75;0.82;;;14.10;99.90;;;;;;5048736;28;20419;-86
2021/05/25 12:41:56;;;;;;;1.25;0.73;;;14.20;99.90;;;;;;5049212;28;20380;-86
2021/05/25 12:44:33;;;;;;;1.50;0.90;;;14.20;99.90;;;;;;5045081;28;20494;-85
2021/05/25 12:47:05;;;;;;;1.40;0.60;;;14.20;99.90;;;;;;5049920;28;20386;-85
2021/05/25 12:49:48;;;;;;;2.65;1.00;;;14.20;99.90;;;;;;5044421;28;20396;-85
2021/05/25 12:52:26;;;;;;;2.10;0.70;;;14.20;99.90;;;;;;5020933;28;21956;-84
2021/05/25 12:55:03;;;;;;;2.03;0.75;;;14.30;99.90;;;;;;5026574;28;20399;-84
2021/05/25 12:57:46;;;;;;;4.10;0.80;;;14.30;99.90;;;;;;5031439;28;20403;-85
2021/05/25 13:00:16;;;;;;;3.40;1.13;;;14.20;99.90;;;;;;5047703;28;21034;-86
2021/05/25 13:02:47;;;;;;;2.10;0.90;;;14.20;99.90;;;;;;5044531;28;20395;-87
2021/05/25 13:05:15;;;;;;;4.63;0.75;;;14.10;99.90;;;;;;5044681;28;20443;-84
2021/05/25 13:07:58;;;;;;;3.50;1.10;;;14.10;99.90;;;;;;5047848;28;20472;-86
2021/05/25 13:10:34;;;;;;;2.45;0.70;;;14.20;99.90;;;;;;5044841;28;20391;-85
2021/05/25 13:13:19;;;;;;;3.42;0.95;;;14.20;99.90;;;;;;5044969;28;20491;-86
2021/05/25 13:15:59;;;;;;;2.47;0.80;;;14.20;99.90;;;;;;5042618;28;20902;-88